logo dgac
Viernes 18 de Junio del 2021
Buscar por aerodromo o helipuerto
Ingrese nombre de aeródromo, localidad o designador OACI:
TAF: TAF SCRG 181022Z 1812/1824 VRB02KT 5000 HZ NSC TX14/1819Z TN03/1812Z TEMPO 1812/1815 3000 BR SCT008 BECMG 1817/1819 24005KT 7000
TAF del 18/06/2021 a las 10:22 UTC
Para mayor información visite www.meteochile.cl
Período de validez: desde el 18 a las 12:00 UTC hasta el 18 a las 24:00 UTC
Viento: dirección variable, velocidad 2 nudos
Visibilidad: 5000 metros
Bruma
Sin nubes bajo los 5000 pies o bajo del MSA (Mínimo de Seguridad del Aeródromo)
Temperatura máxima: 14ºC el 18 a las 19:00 UTC
Temperatura mínima: 3ºC el 18 a las 12:00 UTC
Se espera en forma temporal entre las 12:00 UTC del 18 y las 15:00 UTC del 18:
Visibilidad: 3000 metros
Neblina
Nubes: Nubosidad parcial a 800 pies sobre el nivel del aeródromo
Se espera un cambio entre las 17:00 UTC del 18 y las 19:00 UTC del 18, :
Viento: dirección 240 grados, velocidad 5 nudos
Visibilidad: 7000 metros